Time;durP1;ratioP1;P1;durP2;ratioP2;P2;SDS_P1;SDS_P2;PMS_P1;PMS_P2;Temp;Humidity;BMP_temperature;BMP_pressure;BME280_temperature;BME280_humidity;BME280_pressure;Samples;Min_cycle;Max_cycle;Signal;HPM_P1;HPM_P2
2023/12/23 00:01:51;;;;;;;12.90;5.60;;;;;;;-147.86;100.00;-17609.17;105909;1257;64646;-54
2023/12/23 00:04:18;;;;;;;14.70;6.10;;;;;;;-147.86;100.00;-17609.17;105898;1255;72626;-50
2023/12/23 00:06:45;;;;;;;14.70;6.20;;;;;;;-147.86;100.00;-17609.17;105851;1257;60530;-55
2023/12/23 00:09:15;;;;;;;15.30;6.70;;;;;;;-147.86;100.00;-17609.17;105894;1252;60533;-52
2023/12/23 00:11:42;;;;;;;14.20;6.80;;;;;;;-147.86;100.00;-17609.17;105916;1253;73960;-49
2023/12/23 00:14:09;;;;;;;15.60;7.20;;;;;;;-147.86;100.00;-17609.17;105869;1256;64550;-52
2023/12/23 00:16:36;;;;;;;10.60;6.50;;;;;;;-147.86;100.00;-17609.17;105919;1256;72713;-52
2023/12/23 00:19:03;;;;;;;19.90;6.20;;;;;;;-147.86;100.00;-17609.17;105836;1256;61138;-51
2023/12/23 00:21:30;;;;;;;16.70;6.70;;;;;;;-147.86;100.00;-17609.17;105908;1254;61205;-51
2023/12/23 00:23:57;;;;;;;17.40;6.50;;;;;;;-147.86;100.00;-17609.17;105898;1253;73805;-53
2023/12/23 00:26:24;;;;;;;10.20;5.80;;;;;;;-147.86;100.00;-17609.17;105879;1256;63311;-48
2023/12/23 00:28:51;;;;;;;15.80;5.90;;;;;;;-147.86;100.00;-17609.17;105873;1257;71840;-55
2023/12/23 00:31:18;;;;;;;13.80;6.30;;;;;;;-147.86;100.00;-17609.17;105842;1257;60837;-54
2023/12/23 00:33:47;;;;;;;10.90;5.90;;;;;;;-147.86;100.00;-17609.17;105845;1255;60450;-53
2023/12/23 00:36:14;;;;;;;12.40;5.50;;;;;;;-147.86;100.00;-17609.17;105967;1256;73836;-52
2023/12/23 00:38:42;;;;;;;9.30;5.10;;;;;;;-147.86;100.00;-17609.17;105923;1256;64635;-50
2023/12/23 00:41:09;;;;;;;11.40;5.50;;;;;;;-147.86;100.00;-17609.17;105933;1257;72680;-53
2023/12/23 00:43:36;;;;;;;13.20;5.70;;;;;;;-147.86;100.00;-17609.17;105672;1259;60418;-52
2023/12/23 00:46:03;;;;;;;16.00;5.70;;;;;;;-147.86;100.00;-17609.17;105920;1256;60447;-51
2023/12/23 00:48:30;;;;;;;9.50;5.00;;;;;;;-147.86;100.00;-17609.17;105867;1254;73851;-52
2023/12/23 00:50:57;;;;;;;10.40;5.30;;;;;;;-147.86;100.00;-17609.17;105976;1256;64571;-56
2023/12/23 00:53:25;;;;;;;9.40;4.40;;;;;;;-147.86;100.00;-17609.17;105734;1258;72512;-52
2023/12/23 00:55:53;;;;;;;11.40;4.80;;;;;;;-147.86;100.00;-17609.17;105664;1255;60411;-50
2023/12/23 00:58:20;;;;;;;8.90;4.60;;;;;;;-147.86;100.00;-17609.17;105719;1255;60530;-53
2023/12/23 01:00:47;;;;;;;9.90;5.20;;;;;;;-147.86;100.00;-17609.17;105823;1256;72767;-54
2023/12/23 01:03:13;;;;;;;11.20;4.80;;;;;;;-147.86;100.00;-17609.17;105926;1257;64435;-50
2023/12/23 01:05:40;;;;;;;13.60;5.20;;;;;;;-147.86;100.00;-17609.17;105929;1256;72463;-55
2023/12/23 01:08:07;;;;;;;12.60;5.30;;;;;;;-147.86;100.00;-17609.17;105853;1256;61169;-59
2023/12/23 01:10:34;;;;;;;9.30;4.50;;;;;;;-147.86;100.00;-17609.17;105880;1254;60537;-51
2023/12/23 01:13:01;;;;;;;16.00;5.40;;;;;;;-147.86;100.00;-17609.17;105863;1252;73809;-51
2023/12/23 01:15:28;;;;;;;14.10;5.30;;;;;;;-147.86;100.00;-17609.17;105949;1257;64627;-50
2023/12/23 01:17:55;;;;;;;15.10;5.70;;;;;;;-147.86;100.00;-17609.17;105864;1255;72611;-53
2023/12/23 01:20:22;;;;;;;13.60;4.80;;;;;;;-147.86;100.00;-17609.17;105873;1256;61105;-56
2023/12/23 01:22:50;;;;;;;16.30;5.80;;;;;;;-147.86;100.00;-17609.17;105904;1256;60665;-51
2023/12/23 01:25:17;;;;;;;10.60;4.50;;;;;;;-147.86;100.00;-17609.17;105877;1255;73680;-52
2023/12/23 01:27:44;;;;;;;10.90;5.30;;;;;;;-147.86;100.00;-17609.17;105923;1257;64645;-53
2023/12/23 01:30:11;;;;;;;14.40;4.80;;;;;;;-147.86;100.00;-17609.17;105945;1257;72668;-51
2023/12/23 01:32:38;;;;;;;17.70;4.90;;;;;;;-147.86;100.00;-17609.17;105959;1257;60448;-52
2023/12/23 01:35:06;;;;;;;17.00;5.00;;;;;;;-147.86;100.00;-17609.17;105682;1255;60405;-53
2023/12/23 01:37:33;;;;;;;13.70;4.30;;;;;;;-147.86;100.00;-17609.17;105902;1258;73824;-54
2023/12/23 01:40:00;;;;;;;9.40;4.70;;;;;;;-147.86;100.00;-17609.17;105916;1256;64677;-55
2023/12/23 01:42:27;;;;;;;17.70;5.40;;;;;;;-147.86;100.00;-17609.17;105884;1256;71477;-53
2023/12/23 01:44:53;;;;;;;13.30;5.00;;;;;;;-147.86;100.00;-17609.17;105666;1260;60424;-50
2023/12/23 01:47:20;;;;;;;7.60;4.10;;;;;;;-147.86;100.00;-17609.17;105854;1256;61444;-53
2023/12/23 01:49:47;;;;;;;16.50;5.50;;;;;;;-147.86;100.00;-17609.17;105886;1252;73792;-50
2023/12/23 01:52:14;;;;;;;22.30;5.40;;;;;;;-147.86;100.00;-17609.17;105698;1260;64711;-50
2023/12/23 01:54:41;;;;;;;10.40;4.70;;;;;;;-147.86;100.00;-17609.17;105675;1258;72476;-51
2023/12/23 01:57:08;;;;;;;12.70;4.70;;;;;;;-147.86;100.00;-17609.17;105931;1257;60521;-50
2023/12/23 01:59:35;;;;;;;8.20;4.60;;;;;;;-147.86;100.00;-17609.17;105736;1258;60505;-54
2023/12/23 02:02:02;;;;;;;15.30;5.40;;;;;;;-147.86;100.00;-17609.17;105865;1256;73653;-53
2023/12/23 02:04:29;;;;;;;9.10;4.90;;;;;;;-147.86;100.00;-17609.17;105866;1256;64779;-53
2023/12/23 02:06:56;;;;;;;17.30;5.00;;;;;;;-147.86;100.00;-17609.17;105676;1254;72793;-55
2023/12/23 02:09:23;;;;;;;12.20;5.10;;;;;;;-147.86;100.00;-17609.17;105854;1256;60986;-53
2023/12/23 02:11:56;;;;;;;14.00;4.30;;;;;;;-147.86;100.00;-17609.17;105902;1253;60412;-48
2023/12/23 02:14:51;;;;;;;15.10;4.90;;;;;;;-147.86;100.00;-17609.17;105872;1256;73935;-51
2023/12/23 02:17:18;;;;;;;14.50;4.10;;;;;;;-147.86;100.00;-17609.17;105908;1257;64671;-47
2023/12/23 02:19:45;;;;;;;15.10;4.80;;;;;;;-147.86;100.00;-17609.17;105766;1255;72612;-47
2023/12/23 02:22:12;;;;;;;13.10;4.50;;;;;;;-147.86;100.00;-17609.17;105979;1254;61044;-53
2023/12/23 02:24:39;;;;;;;11.10;4.70;;;;;;;-147.86;100.00;-17609.17;105889;1253;60576;-49
2023/12/23 02:27:11;;;;;;;9.80;4.80;;;;;;;-147.86;100.00;-17609.17;105909;1257;73915;-55
2023/12/23 02:29:39;;;;;;;13.20;5.20;;;;;;;-147.86;100.00;-17609.17;105923;1257;63429;-53
2023/12/23 02:32:06;;;;;;;10.80;4.40;;;;;;;-147.86;100.00;-17609.17;105875;1255;72608;-50
2023/12/23 02:34:33;;;;;;;12.10;4.70;;;;;;;-147.86;100.00;-17609.17;105744;1259;61133;-50
2023/12/23 02:37:00;;;;;;;13.80;4.50;;;;;;;-147.86;100.00;-17609.17;105885;1254;60495;-50
2023/12/23 02:39:26;;;;;;;12.90;4.00;;;;;;;-147.86;100.00;-17609.17;105861;1254;72702;-50
2023/12/23 02:41:53;;;;;;;17.60;4.10;;;;;;;-147.86;100.00;-17609.17;105857;1256;64679;-50
2023/12/23 02:44:20;;;;;;;7.70;4.00;;;;;;;-147.86;100.00;-17609.17;105913;1254;71380;-52
2023/12/23 02:46:47;;;;;;;12.90;4.50;;;;;;;-147.86;100.00;-17609.17;105907;1257;60314;-51
2023/12/23 02:49:14;;;;;;;16.30;4.70;;;;;;;-147.86;100.00;-17609.17;105709;1254;60447;-49
2023/12/23 02:51:40;;;;;;;18.80;5.10;;;;;;;-147.86;100.00;-17609.17;105526;1254;449162;-50
2023/12/23 02:56:55;;;;;;;11.70;4.20;;;;;;;-147.86;100.00;-17609.17;102516;1292;615171;-49
2023/12/23 02:59:24;;;;;;;23.50;5.30;;;;;;;-147.86;100.00;-17609.17;105053;1268;59161;-52
2023/12/23 03:01:53;;;;;;;11.50;4.40;;;;;;;-147.86;100.00;-17609.17;105068;1267;60268;-52
2023/12/23 03:04:19;;;;;;;11.80;4.50;;;;;;;-147.86;100.00;-17609.17;104894;1271;72088;-49
2023/12/23 03:06:46;;;;;;;10.90;3.90;;;;;;;-147.86;100.00;-17609.17;105013;1269;64656;-51
2023/12/23 03:09:13;;;;;;;10.50;5.90;;;;;;;-147.86;100.00;-17609.17;104910;1263;185564;-52
2023/12/23 03:11:40;;;;;;;11.10;4.10;;;;;;;-147.86;100.00;-17609.17;105225;1266;60437;-53
2023/12/23 03:14:07;;;;;;;13.40;4.50;;;;;;;-147.86;100.00;-17609.17;105258;1263;60290;-49
2023/12/23 03:16:34;;;;;;;11.00;5.10;;;;;;;-147.86;100.00;-17609.17;105247;1264;71120;-47
2023/12/23 03:19:02;;;;;;;9.30;4.20;;;;;;;-147.86;100.00;-17609.17;105043;1269;64655;-49
2023/12/23 03:21:30;;;;;;;15.30;4.50;;;;;;;-147.86;100.00;-17609.17;105114;1264;72546;-53
2023/12/23 03:23:57;;;;;;;13.10;4.50;;;;;;;-147.86;100.00;-17609.17;105197;1266;61031;-48
2023/12/23 03:26:25;;;;;;;12.70;4.40;;;;;;;-147.86;100.00;-17609.17;105226;1263;60166;-51
2023/12/23 03:28:52;;;;;;;9.20;3.90;;;;;;;-147.86;100.00;-17609.17;105664;1257;72966;-52
2023/12/23 03:31:19;;;;;;;11.40;4.20;;;;;;;-147.86;100.00;-17609.17;105649;1260;64786;-50
2023/12/23 03:33:46;;;;;;;11.50;5.00;;;;;;;-147.86;100.00;-17609.17;105681;1260;71730;-49
2023/12/23 03:36:13;;;;;;;13.50;4.60;;;;;;;-147.86;100.00;-17609.17;105632;1260;61132;-52
2023/12/23 03:38:40;;;;;;;18.70;4.60;;;;;;;-147.86;100.00;-17609.17;105639;1257;60796;-47
2023/12/23 03:41:10;;;;;;;19.10;5.20;;;;;;;-147.86;100.00;-17609.17;105652;1255;73018;-50
2023/12/23 03:43:37;;;;;;;9.60;4.50;;;;;;;-147.86;100.00;-17609.17;105629;1260;64788;-49
2023/12/23 03:46:04;;;;;;;16.10;4.90;;;;;;;-147.86;100.00;-17609.17;105587;1258;72500;-50
2023/12/23 03:48:31;;;;;;;12.80;4.60;;;;;;;-147.86;100.00;-17609.17;105641;1260;59692;-53
2023/12/23 03:50:59;;;;;;;15.10;5.20;;;;;;;-147.86;100.00;-17609.17;105624;1257;60293;-48
2023/12/23 03:53:26;;;;;;;16.80;5.20;;;;;;;-147.86;100.00;-17609.17;105617;1259;71987;-50
2023/12/23 03:55:53;;;;;;;13.60;5.40;;;;;;;-147.86;100.00;-17609.17;105617;1259;64771;-48
2023/12/23 03:58:20;;;;;;;13.30;5.60;;;;;;;-147.86;100.00;-17609.17;105671;1257;72623;-48
2023/12/23 04:00:47;;;;;;;16.30;5.90;;;;;;;-147.86;100.00;-17609.17;105599;1260;61149;-50
2023/12/23 04:03:14;;;;;;;18.00;5.90;;;;;;;-147.86;100.00;-17609.17;105667;1257;60154;-54
2023/12/23 04:05:41;;;;;;;12.50;5.30;;;;;;;-147.86;100.00;-17609.17;105699;1257;73046;-50
2023/12/23 04:08:08;;;;;;;16.40;6.40;;;;;;;-147.86;100.00;-17609.17;105609;1260;64589;-49
2023/12/23 04:10:35;;;;;;;17.70;6.70;;;;;;;-147.86;100.00;-17609.17;105635;1257;72482;-48
2023/12/23 04:13:02;;;;;;;16.60;5.70;;;;;;;-147.86;100.00;-17609.17;105671;1262;61138;-50
2023/12/23 04:15:29;;;;;;;18.00;6.40;;;;;;;-147.86;100.00;-17609.17;105604;1257;59653;-47
2023/12/23 04:17:56;;;;;;;13.30;5.80;;;;;;;-147.86;100.00;-17609.17;105656;1258;73445;-51
2023/12/23 04:20:23;;;;;;;16.80;6.00;;;;;;;-147.86;100.00;-17609.17;105640;1260;64590;-49
2023/12/23 04:22:50;;;;;;;13.90;5.10;;;;;;;-147.86;100.00;-17609.17;105591;1257;72715;-52
2023/12/23 04:25:17;;;;;;;18.30;6.50;;;;;;;-147.86;100.00;-17609.17;105538;1263;60982;-51
2023/12/23 04:27:51;;;;;;;11.00;5.30;;;;;;;-147.86;100.00;-17609.17;105689;1258;60233;-48
2023/12/23 04:30:19;;;;;;;12.30;5.30;;;;;;;-147.86;100.00;-17609.17;105585;1259;72843;-50
2023/12/23 04:32:48;;;;;;;13.10;5.30;;;;;;;-147.86;100.00;-17609.17;105654;1260;64916;-49
2023/12/23 04:35:15;;;;;;;11.90;5.80;;;;;;;-147.86;100.00;-17609.17;105559;1257;72341;-47
2023/12/23 04:37:44;;;;;;;18.10;6.40;;;;;;;-147.86;100.00;-17609.17;105668;1260;59733;-49
2023/12/23 04:40:11;;;;;;;14.20;5.60;;;;;;;-147.86;100.00;-17609.17;105531;1257;60044;-46
2023/12/23 04:42:39;;;;;;;24.00;7.00;;;;;;;-147.86;100.00;-17609.17;105638;1260;72887;-51
2023/12/23 04:45:09;;;;;;;22.10;7.60;;;;;;;-147.86;100.00;-17609.17;105620;1260;64769;-52
2023/12/23 04:47:37;;;;;;;20.50;7.10;;;;;;;-147.86;100.00;-17609.17;105650;1260;72746;-49
2023/12/23 04:50:05;;;;;;;24.20;7.10;;;;;;;-147.86;100.00;-17609.17;105724;1256;59972;-52
2023/12/23 04:52:33;;;;;;;20.10;7.70;;;;;;;-147.86;100.00;-17609.17;105560;1257;60400;-52
2023/12/23 04:55:03;;;;;;;17.20;7.40;;;;;;;-147.86;100.00;-17609.17;105627;1258;73005;-53
2023/12/23 04:57:33;;;;;;;19.30;7.90;;;;;;;-147.86;100.00;-17609.17;105574;1263;64651;-55
2023/12/23 05:00:00;;;;;;;16.60;7.30;;;;;;;-147.86;100.00;-17609.17;105635;1260;72591;-54
2023/12/23 05:02:28;;;;;;;21.70;7.00;;;;;;;-147.86;100.00;-17609.17;105645;1258;60927;-52
2023/12/23 05:04:56;;;;;;;17.30;7.30;;;;;;;-147.86;100.00;-17609.17;105570;1257;61074;-48
2023/12/23 05:07:23;;;;;;;18.80;7.30;;;;;;;-147.86;100.00;-17609.17;105626;1257;71750;-49
2023/12/23 05:09:51;;;;;;;20.50;7.50;;;;;;;-147.86;100.00;-17609.17;105639;1257;63064;-48
2023/12/23 05:12:18;;;;;;;17.80;6.90;;;;;;;-147.86;100.00;-17609.17;105596;1260;72560;-49
2023/12/23 05:14:45;;;;;;;18.00;6.90;;;;;;;-147.86;100.00;-17609.17;105599;1260;59525;-54
2023/12/23 05:17:11;;;;;;;18.90;7.20;;;;;;;-147.86;100.00;-17609.17;105681;1257;60386;-50
2023/12/23 05:19:42;;;;;;;20.50;6.80;;;;;;;-147.86;100.00;-17609.17;105541;1258;72910;-50
2023/12/23 05:22:10;;;;;;;23.20;6.60;;;;;;;-147.86;100.00;-17609.17;105668;1259;65448;-51
2023/12/23 05:24:37;;;;;;;20.60;7.30;;;;;;;-147.86;100.00;-17609.17;105619;1257;72673;-52
2023/12/23 05:27:07;;;;;;;16.90;6.90;;;;;;;-147.86;100.00;-17609.17;105661;1260;61158;-49
2023/12/23 05:29:34;;;;;;;17.00;6.20;;;;;;;-147.86;100.00;-17609.17;105649;1259;60313;-49
2023/12/23 05:32:03;;;;;;;18.40;5.70;;;;;;;-147.86;100.00;-17609.17;105569;1257;73098;-50
2023/12/23 05:34:30;;;;;;;14.90;5.60;;;;;;;-147.86;100.00;-17609.17;105635;1260;64701;-47
2023/12/23 05:36:57;;;;;;;20.20;6.30;;;;;;;-147.86;100.00;-17609.17;105700;1257;72604;-51
2023/12/23 05:39:24;;;;;;;18.60;6.10;;;;;;;-147.86;100.00;-17609.17;105669;1259;61189;-54
2023/12/23 05:41:50;;;;;;;19.50;6.30;;;;;;;-147.86;100.00;-17609.17;105608;1257;60244;-53
2023/12/23 05:44:17;;;;;;;12.60;5.50;;;;;;;-147.86;100.00;-17609.17;105593;1258;73046;-50
2023/12/23 05:46:44;;;;;;;18.10;6.20;;;;;;;-147.86;100.00;-17609.17;105612;1260;64710;-48
2023/12/23 05:49:11;;;;;;;13.90;6.30;;;;;;;-147.86;100.00;-17609.17;105577;1257;72500;-48
2023/12/23 05:51:38;;;;;;;18.20;5.90;;;;;;;-147.86;100.00;-17609.17;105538;1260;60995;-50
2023/12/23 05:54:05;;;;;;;14.20;6.90;;;;;;;-147.86;100.00;-17609.17;105622;1257;60042;-55
2023/12/23 05:56:32;;;;;;;20.80;6.70;;;;;;;-147.86;100.00;-17609.17;105603;1257;73011;-49
2023/12/23 05:59:00;;;;;;;16.20;6.40;;;;;;;-147.86;100.00;-17609.17;105686;1261;64748;-48
2023/12/23 06:01:27;;;;;;;17.60;6.20;;;;;;;-147.86;100.00;-17609.17;105596;1258;72617;-48
2023/12/23 06:03:54;;;;;;;23.50;6.20;;;;;;;-147.86;100.00;-17609.17;105584;1259;61148;-52
2023/12/23 06:06:21;;;;;;;13.70;6.40;;;;;;;-147.86;100.00;-17609.17;105671;1258;60065;-47
2023/12/23 06:08:48;;;;;;;17.90;6.50;;;;;;;-147.86;100.00;-17609.17;105635;1260;72022;-55
2023/12/23 06:11:15;;;;;;;20.00;7.30;;;;;;;-147.86;100.00;-17609.17;105599;1260;64563;-52
2023/12/23 06:13:42;;;;;;;25.30;6.40;;;;;;;-147.86;100.00;-17609.17;105693;1257;72661;-50
2023/12/23 06:16:09;;;;;;;13.50;6.20;;;;;;;-147.86;100.00;-17609.17;105702;1260;61097;-52
2023/12/23 06:18:36;;;;;;;14.70;5.50;;;;;;;-147.86;100.00;-17609.17;105694;1259;59577;-52
2023/12/23 06:21:03;;;;;;;13.20;5.60;;;;;;;-147.86;100.00;-17609.17;105941;1256;72977;-49
2023/12/23 06:23:30;;;;;;;18.70;6.30;;;;;;;-147.86;100.00;-17609.17;105893;1257;64457;-49
2023/12/23 06:25:57;;;;;;;20.00;6.60;;;;;;;-147.86;100.00;-17609.17;105872;1254;72463;-51
2023/12/23 06:28:24;;;;;;;20.30;7.20;;;;;;;-147.86;100.00;-17609.17;105905;1257;61116;-47
2023/12/23 06:30:51;;;;;;;14.60;5.20;;;;;;;-147.86;100.00;-17609.17;105903;1254;59707;-49
2023/12/23 06:33:18;;;;;;;11.20;5.50;;;;;;;-147.86;100.00;-17609.17;105904;1253;72968;-51
2023/12/23 06:35:45;;;;;;;15.90;5.80;;;;;;;-147.86;100.00;-17609.17;105864;1257;64606;-53
2023/12/23 06:38:15;;;;;;;14.10;5.90;;;;;;;-147.86;100.00;-17609.17;105881;1254;72629;-51
2023/12/23 06:40:42;;;;;;;15.40;5.70;;;;;;;-147.86;100.00;-17609.17;105874;1257;59616;-45
2023/12/23 06:43:09;;;;;;;18.70;6.60;;;;;;;-147.86;100.00;-17609.17;105924;1253;60232;-51
2023/12/23 06:45:57;;;;;;;24.10;6.00;;;;;;;-147.86;100.00;-17609.17;105926;1254;72746;-55
2023/12/23 06:48:24;;;;;;;17.90;5.50;;;;;;;-147.86;100.00;-17609.17;105934;1256;64652;-48
2023/12/23 06:50:51;;;;;;;13.80;6.00;;;;;;;-147.86;100.00;-17609.17;105890;1256;72644;-49
2023/12/23 06:53:18;;;;;;;12.10;5.50;;;;;;;-147.86;100.00;-17609.17;105860;1256;61017;-45
2023/12/23 06:55:45;;;;;;;17.50;5.60;;;;;;;-147.86;100.00;-17609.17;105879;1252;60355;-46
2023/12/23 06:58:11;;;;;;;22.30;6.40;;;;;;;-147.86;100.00;-17609.17;105904;1257;72869;-55
2023/12/23 07:00:38;;;;;;;13.90;6.10;;;;;;;-147.86;100.00;-17609.17;105729;1256;64772;-55
2023/12/23 07:03:06;;;;;;;13.70;5.80;;;;;;;-147.86;100.00;-17609.17;105569;1256;72674;-48
2023/12/23 07:05:33;;;;;;;15.60;5.50;;;;;;;-147.86;100.00;-17609.17;105702;1256;60446;-49
2023/12/23 07:08:00;;;;;;;12.00;5.60;;;;;;;-147.86;100.00;-17609.17;105930;1256;60526;-47
2023/12/23 07:10:27;;;;;;;15.40;5.40;;;;;;;-147.86;100.00;-17609.17;105876;1256;73817;-56
2023/12/23 07:12:54;;;;;;;11.70;5.30;;;;;;;-147.86;100.00;-17609.17;105925;1257;64668;-54
2023/12/23 07:15:22;;;;;;;12.20;4.90;;;;;;;-147.86;100.00;-17609.17;105900;1257;73243;-56
2023/12/23 07:17:49;;;;;;;22.10;5.80;;;;;;;-147.86;100.00;-17609.17;105907;1256;60425;-49
2023/12/23 07:20:16;;;;;;;15.90;5.20;;;;;;;-147.86;100.00;-17609.17;105844;1253;60396;-48
2023/12/23 07:22:43;;;;;;;10.50;5.10;;;;;;;-147.86;100.00;-17609.17;105946;1263;73608;-50
2023/12/23 07:25:10;;;;;;;16.30;4.50;;;;;;;-147.86;100.00;-17609.17;105827;1257;64695;-50
2023/12/23 07:27:37;;;;;;;17.90;5.10;;;;;;;-147.86;100.00;-17609.17;105871;1257;72646;-50
2023/12/23 07:30:04;;;;;;;13.60;4.80;;;;;;;-147.86;100.00;-17609.17;105888;1257;60572;-49
2023/12/23 07:32:31;;;;;;;12.20;5.10;;;;;;;-147.86;100.00;-17609.17;105831;1254;60430;-46
2023/12/23 07:34:59;;;;;;;10.10;3.90;;;;;;;-147.86;100.00;-17609.17;105819;1257;73826;-55
2023/12/23 07:37:26;;;;;;;9.40;4.20;;;;;;;-147.86;100.00;-17609.17;105849;1257;64648;-47
2023/12/23 07:39:52;;;;;;;13.40;4.50;;;;;;;-147.86;100.00;-17609.17;105833;1256;71338;-52
2023/12/23 07:42:20;;;;;;;18.00;4.20;;;;;;;-147.86;100.00;-17609.17;105890;1257;60537;-48
2023/12/23 07:44:47;;;;;;;6.30;4.20;;;;;;;-147.86;100.00;-17609.17;105916;1256;60463;-50
2023/12/23 07:47:14;;;;;;;11.40;4.80;;;;;;;-147.86;100.00;-17609.17;105862;1256;73812;-52
2023/12/23 07:49:41;;;;;;;14.20;4.60;;;;;;;-147.86;100.00;-17609.17;105967;1256;65358;-49
2023/12/23 07:52:08;;;;;;;13.40;4.60;;;;;;;-147.86;100.00;-17609.17;105874;1256;72576;-49
2023/12/23 07:54:35;;;;;;;15.80;4.20;;;;;;;-147.86;100.00;-17609.17;105872;1256;60916;-52
2023/12/23 07:57:02;;;;;;;10.80;4.30;;;;;;;-147.86;100.00;-17609.17;105852;1257;60450;-50
2023/12/23 07:59:29;;;;;;;18.90;4.50;;;;;;;-147.86;100.00;-17609.17;105893;1256;73836;-48
2023/12/23 08:01:56;;;;;;;12.50;4.10;;;;;;;-147.86;100.00;-17609.17;105813;1256;64639;-52
2023/12/23 08:04:23;;;;;;;10.00;4.30;;;;;;;-147.86;100.00;-17609.17;105889;1255;72619;-54
2023/12/23 08:06:52;;;;;;;13.00;3.90;;;;;;;-147.86;100.00;-17609.17;105833;1256;61170;-48
2023/12/23 08:09:20;;;;;;;10.30;4.50;;;;;;;-147.86;100.00;-17609.17;105930;1257;60780;-48
2023/12/23 08:11:47;;;;;;;9.70;4.00;;;;;;;-147.86;100.00;-17609.17;105894;1254;73828;-53
2023/12/23 08:14:14;;;;;;;15.10;4.00;;;;;;;-147.86;100.00;-17609.17;105890;1257;64930;-51
2023/12/23 08:16:41;;;;;;;11.60;3.90;;;;;;;-147.86;100.00;-17609.17;105979;1256;72658;-47
2023/12/23 08:19:08;;;;;;;14.40;4.30;;;;;;;-147.86;100.00;-17609.17;105925;1257;61129;-52
2023/12/23 08:21:35;;;;;;;10.50;4.00;;;;;;;-147.86;100.00;-17609.17;105929;1252;60533;-52
2023/12/23 08:24:03;;;;;;;12.00;4.70;;;;;;;-147.86;100.00;-17609.17;105867;1257;73687;-51
2023/12/23 08:26:30;;;;;;;10.80;4.20;;;;;;;-147.86;100.00;-17609.17;105882;1257;64671;-48
2023/12/23 08:28:57;;;;;;;11.20;4.00;;;;;;;-147.86;100.00;-17609.17;105948;1257;72613;-46
2023/12/23 08:31:25;;;;;;;10.50;4.20;;;;;;;-147.86;100.00;-17609.17;105868;1256;61108;-52
2023/12/23 08:33:51;;;;;;;12.70;4.20;;;;;;;-147.86;100.00;-17609.17;105934;1254;60450;-48
2023/12/23 08:36:19;;;;;;;12.00;4.10;;;;;;;-147.86;100.00;-17609.17;105873;1256;73872;-53
2023/12/23 08:38:46;;;;;;;8.40;3.60;;;;;;;-147.86;100.00;-17609.17;105879;1255;64807;-53
2023/12/23 08:41:13;;;;;;;10.10;3.50;;;;;;;-147.86;100.00;-17609.17;105854;1257;72395;-49
2023/12/23 08:43:40;;;;;;;7.90;3.70;;;;;;;-147.86;100.00;-17609.17;105892;1256;60430;-47
2023/12/23 08:46:08;;;;;;;11.60;4.20;;;;;;;-147.86;100.00;-17609.17;105915;1257;60418;-50
2023/12/23 08:48:37;;;;;;;16.70;4.60;;;;;;;-147.86;100.00;-17609.17;105997;1257;73926;-55
2023/12/23 08:51:05;;;;;;;16.90;3.80;;;;;;;-147.86;100.00;-17609.17;105923;1263;64776;-56
2023/12/23 08:53:32;;;;;;;15.10;4.10;;;;;;;-147.86;100.00;-17609.17;105837;1256;71167;-52
2023/12/23 08:55:58;;;;;;;11.70;4.10;;;;;;;-147.86;100.00;-17609.17;105923;1257;60498;-49
2023/12/23 08:58:25;;;;;;;11.90;4.50;;;;;;;-147.86;100.00;-17609.17;105912;1252;60335;-57
2023/12/23 09:00:52;;;;;;;8.90;4.00;;;;;;;-147.86;100.00;-17609.17;105872;1256;73942;-55
2023/12/23 09:03:20;;;;;;;12.40;3.80;;;;;;;-147.86;100.00;-17609.17;105862;1258;65644;-56
2023/12/23 09:05:47;;;;;;;15.20;4.20;;;;;;;-147.86;100.00;-17609.17;105884;1256;72536;-57
2023/12/23 09:08:14;;;;;;;10.50;4.00;;;;;;;-147.86;100.00;-17609.17;105922;1257;60545;-57
2023/12/23 09:10:42;;;;;;;8.70;4.00;;;;;;;-147.86;100.00;-17609.17;105919;1255;60850;-54
2023/12/23 09:13:08;;;;;;;8.00;4.40;;;;;;;-147.86;100.00;-17609.17;105884;1256;73793;-54
2023/12/23 09:15:37;;;;;;;9.90;3.70;;;;;;;-147.86;100.00;-17609.17;105868;1257;64766;-52
2023/12/23 09:18:04;;;;;;;12.20;4.50;;;;;;;-147.86;100.00;-17609.17;105907;1257;72717;-51
2023/12/23 09:20:34;;;;;;;10.50;4.50;;;;;;;-147.86;100.00;-17609.17;105949;1253;60539;-46
2023/12/23 09:23:01;;;;;;;10.10;4.20;;;;;;;-147.86;100.00;-17609.17;105892;1252;60441;-53
2023/12/23 09:25:28;;;;;;;15.90;4.50;;;;;;;-147.86;100.00;-17609.17;105877;1254;73793;-52
2023/12/23 09:27:55;;;;;;;7.20;3.40;;;;;;;-147.86;100.00;-17609.17;105923;1256;64677;-57
2023/12/23 09:30:22;;;;;;;12.80;4.10;;;;;;;-147.86;100.00;-17609.17;105838;1254;72662;-52
2023/12/23 09:32:49;;;;;;;10.40;4.10;;;;;;;-147.86;100.00;-17609.17;105849;1257;61169;-52
2023/12/23 09:35:16;;;;;;;13.50;4.20;;;;;;;-147.86;100.00;-17609.17;105884;1252;60450;-52
2023/12/23 09:37:44;;;;;;;8.50;3.80;;;;;;;-147.86;100.00;-17609.17;105898;1257;72413;-50
2023/12/23 09:40:13;;;;;;;10.20;4.20;;;;;;;-147.86;100.00;-17609.17;105877;1256;64472;-55
2023/12/23 09:42:40;;;;;;;13.50;4.40;;;;;;;-147.86;100.00;-17609.17;105865;1253;72362;-53
2023/12/23 09:45:07;;;;;;;14.00;4.10;;;;;;;-147.86;100.00;-17609.17;105923;1256;60338;-47
2023/12/23 09:47:35;;;;;;;10.70;4.10;;;;;;;-147.86;100.00;-17609.17;105954;1253;60475;-54
2023/12/23 09:50:02;;;;;;;13.30;4.40;;;;;;;-147.86;100.00;-17609.17;105943;1254;73678;-52
2023/12/23 09:52:30;;;;;;;13.60;3.50;;;;;;;-147.86;100.00;-17609.17;105882;1266;64674;-50
2023/12/23 09:54:57;;;;;;;12.30;4.20;;;;;;;-147.86;100.00;-14344.72;105927;1254;72639;-51
2023/12/23 09:57:24;;;;;;;12.50;4.50;;;;;;;-147.86;100.00;-4864.55;105832;1256;61259;-49
2023/12/23 09:59:52;;;;;;;9.20;3.60;;;;;;;-147.86;100.00;2785.48;105775;1254;60434;-49
2023/12/23 10:02:19;;;;;;;15.00;4.00;;;;;;;-147.86;100.00;5534.45;105910;1256;73910;-51
2023/12/23 10:04:45;;;;;;;8.50;3.90;;;;;;;-147.86;100.00;7633.57;105944;1257;64769;-54
2023/12/23 10:07:16;;;;;;;12.10;4.50;;;;;;;-147.86;100.00;3981.30;105883;1257;72635;-55
2023/12/23 10:09:43;;;;;;;8.90;4.00;;;;;;;-147.86;100.00;-1208.19;105808;1257;60440;-50
2023/12/23 10:12:10;;;;;;;7.60;3.10;;;;;;;-147.86;100.00;4122.92;105960;1257;60530;-50
2023/12/23 10:14:41;;;;;;;9.00;3.50;;;;;;;-147.86;100.00;7923.01;105876;1254;73933;-48
2023/12/23 10:17:08;;;;;;;10.70;3.20;;;;;;;-147.86;100.00;18437.87;106001;1257;64799;-50
2023/12/23 10:19:34;;;;;;;11.10;3.60;;;;;;;-147.86;100.00;15524.58;105895;1254;72458;-50
2023/12/23 10:22:02;;;;;;;8.20;3.70;;;;;;;-147.86;100.00;23524.29;105821;1257;60421;-54
2023/12/23 10:24:31;;;;;;;11.90;3.60;;;;;;;-147.86;100.00;27164.69;105923;1254;60524;-51
2023/12/23 10:26:58;;;;;;;5.80;3.10;;;;;;;-147.86;100.00;35902.62;105919;1256;73891;-53
2023/12/23 10:29:25;;;;;;;13.20;3.50;;;;;;;-147.86;100.00;44169.50;105717;1259;64566;-57
2023/12/23 10:31:53;;;;;;;11.00;3.70;;;;;;;-147.86;100.00;57576.10;105742;1254;72611;-51
2023/12/23 10:34:20;;;;;;;11.00;3.90;;;;;;;-147.86;100.00;42615.34;105909;1256;60505;-49
2023/12/23 10:36:47;;;;;;;10.30;4.20;;;;;;;-147.86;100.00;27975.72;105900;1254;60690;-51
2023/12/23 10:39:25;;;;;;;8.80;3.40;;;;;;;-147.86;100.00;27785.51;105717;1252;72726;-54
2023/12/23 10:42:03;;;;;;;6.10;3.00;;;;;;;-147.86;100.00;44626.01;105900;1257;64796;-51
2023/12/23 10:44:31;;;;;;;9.50;3.50;;;;;;;-147.86;100.00;35063.55;105868;1254;72675;-53
2023/12/23 10:46:58;;;;;;;10.70;3.80;;;;;;;-147.86;100.00;62496.17;106005;1254;60498;-50
2023/12/23 10:49:25;;;;;;;8.80;3.20;;;;;;;-147.86;100.00;62019.01;105854;1254;60537;-54
2023/12/23 10:51:54;;;;;;;8.90;3.60;;;;;;;-147.86;100.00;23020.01;105726;1254;73722;-53
2023/12/23 10:54:24;;;;;;;13.50;4.20;;;;;;;-147.86;100.00;12251.04;105672;1258;64740;-54